Latest Weather Observations for Kiama

IDN60801

Issued at 6:35 pm EST Wednesday 30 July 2014 (issued every 30 minutes, with the page automatically refreshed every 10 minutes)

About weather observations | Map of weather stations | Latest weather observations for NSW | Other Formats
Station Details ID: 068242 Name: KIAMA (BOMBO HEADLAND) Lat: -34.65 Lon: 150.86 Height: 15.5 m
Data from the previous 72 hours. | See also: Recent months at Kiama
Date/Time
EST
Temp
°C
App
Temp
°C
Dew
Point
Rel
Hum
%
Delta-T
°C
Wind Press
QNH
hPa
Press
MSL
hPa
Rain
since 9 am
mm
Dir
 
Spd
km/h
Gust
km/h
Spd
kts
Gust
kts
30/06:30pm 18.1 15.0 7.2 49 5.5 NW 13 22 7 12 - - 0.0
30/06:00pm 17.8 16.0 7.0 49 5.4 NW 6 7 3 4 - - 0.0
30/05:30pm 18.8 15.2 6.9 46 6.0 NW 15 24 8 13 - - 0.0
30/05:00pm 19.1 15.5 6.9 45 6.1 WNW 15 24 8 13 - - 0.0
30/04:30pm 19.8 17.1 7.5 45 6.3 W 11 19 6 10 - - 0.0
30/04:00pm 20.0 14.0 7.1 43 6.6 W 28 44 15 24 - - 0.0
30/03:30pm 20.5 17.4 7.2 42 6.8 NW 13 22 7 12 - - 0.0
30/03:00pm 20.9 15.5 6.4 39 7.3 W 24 37 13 20 - - 0.0
30/02:30pm 20.8 15.8 6.4 39 7.3 WNW 22 37 12 20 - - 0.0
30/02:00pm 20.9 16.1 7.2 41 7.0 W 22 35 12 19 - - 0.0
30/01:30pm 20.9 16.4 6.8 40 7.2 W 20 28 11 15 - - 0.0
30/01:00pm 21.4 15.4 6.9 39 7.4 W 28 43 15 23 - - 0.0
30/12:30pm 21.1 16.8 7.0 40 7.2 WNW 19 33 10 18 - - 0.0
30/12:00pm 22.4 20.0 8.5 41 7.4 W 11 22 6 12 - - 0.0
30/11:30am 21.0 18.9 8.3 44 6.6 W 9 20 5 11 - - 0.0
30/11:00am 20.6 18.0 7.6 43 6.7 W 11 24 6 13 - - 0.0
30/10:30am 20.5 18.7 7.8 44 6.6 WNW 7 19 4 10 - - 0.0
30/10:00am 20.4 17.9 8.1 45 6.4 NW 11 19 6 10 - - 0.0
30/09:30am 19.6 16.3 8.0 47 6.0 NW 15 22 8 12 - - 0.0
30/09:00am 19.1 16.4 7.5 47 5.9 W 11 19 6 10 - - 0.0
30/08:30am 18.9 16.2 7.4 47 5.8 NW 11 17 6 9 - - 0.0
30/08:00am 18.3 15.9 7.1 48 5.6 NW 9 17 5 9 - - 0.0
30/07:30am 17.6 13.1 6.8 49 5.4 W 20 37 11 20 - - 0.0
30/07:20am 17.8 11.7 6.7 48 5.5 W 28 43 15 23 - - 0.0
30/07:00am 17.4 15.2 6.3 48 5.5 ENE 7 15 4 8 - - 0.0
30/06:30am 17.2 15.0 6.1 48 5.4 WSW 7 19 4 10 - - 0.0
30/06:00am 17.4 14.5 6.3 48 5.5 WNW 11 30 6 16 - - 0.0
30/05:30am 17.6 14.6 5.9 46 5.7 NNW 11 17 6 9 - - 0.0
30/05:00am 17.3 14.3 6.2 48 5.4 NNW 11 26 6 14 - - 0.0
30/04:30am 17.8 15.1 5.7 45 5.9 WSW 9 28 5 15 - - 0.0
30/04:00am 17.7 15.5 5.3 44 6.0 WNW 6 19 3 10 - - 0.0
30/03:30am 17.7 15.2 5.0 43 6.1 WSW 7 24 4 13 - - 0.0
30/03:00am 17.6 13.5 4.6 42 6.2 WNW 15 28 8 15 - - 0.0
30/02:30am 17.9 13.9 3.0 37 6.9 WNW 13 24 7 13 - - 0.0
30/02:00am 18.0 14.0 2.7 36 7.0 W 13 24 7 13 - - 0.0
30/01:30am 18.0 13.9 2.3 35 7.1 WNW 13 26 7 14 - - 0.0
30/01:00am 17.5 12.8 3.4 39 6.5 WNW 17 32 9 17 - - 0.0
30/12:30am 14.8 13.3 4.8 51 4.7 WNW 2 11 1 6 - - 0.0
30/12:00am 15.2 13.3 4.9 50 4.8 NNW 4 7 2 4 - - 0.0
 
Date/Time
EST
Temp
°C
App
Temp
°C
Dew
Point
Rel
Hum
%
Delta-T
°C
Wind Press
QNH
hPa
Press
MSL
hPa
Rain
since 9 am
mm
Dir
 
Spd
km/h
Gust
km/h
Spd
kts
Gust
kts
29/11:30pm 14.3 12.8 4.9 53 4.4 N 2 9 1 5 - - 0.0
29/11:00pm 16.0 14.1 4.7 47 5.3 NNW 4 11 2 6 - - 0.0
29/10:30pm 15.8 14.1 3.9 45 5.5 N 2 6 1 3 - - 0.0
29/10:00pm 16.2 13.6 4.3 45 5.6 N 7 9 4 5 - - 0.0
29/09:30pm 16.9 14.2 3.9 42 6.1 N 7 9 4 5 - - 0.0
29/09:00pm 16.9 14.2 3.6 41 6.2 N 7 15 4 8 - - 0.0
29/08:30pm 17.5 14.3 3.0 38 6.7 NNW 9 13 5 7 - - 0.0
29/08:00pm 17.5 14.3 3.0 38 6.7 NNW 9 15 5 8 - - 0.0
29/07:30pm 17.7 14.5 2.8 37 6.8 NNW 9 13 5 7 - - 0.0
29/07:00pm 18.1 15.4 2.4 35 7.2 NNW 6 13 3 7 - - 0.0
29/06:30pm 19.1 15.0 2.5 33 7.7 NW 13 20 7 11 - - 0.0
29/06:00pm 19.5 15.0 2.4 32 7.9 NNW 15 28 8 15 - - 0.0
29/05:30pm 20.0 14.1 1.9 30 8.3 WNW 22 39 12 21 - - 0.0
29/05:00pm 20.7 15.2 1.6 28 8.8 WNW 20 35 11 19 - - 0.0
29/04:37pm 21.3 14.1 1.0 26 9.2 WNW 28 48 15 26 - - 0.0
29/04:30pm 21.4 15.0 1.1 26 9.3 WNW 24 37 13 20 - - 0.0
29/04:00pm 22.0 14.1 1.1 25 9.6 NW 32 52 17 28 - - 0.0
29/03:41pm 22.3 15.1 0.8 24 9.8 WNW 28 46 15 25 - - 0.0
29/03:30pm 22.7 17.2 1.7 25 9.8 WNW 20 35 11 19 - - 0.0
29/03:00pm 23.1 17.2 1.5 24 10.1 WNW 22 35 12 19 - - 0.0
29/02:30pm 23.1 17.2 1.5 24 10.1 WNW 22 39 12 21 - - 0.0
29/02:09pm 22.9 15.8 1.3 24 10.0 WNW 28 48 15 26 - - 0.0
29/02:00pm 23.4 17.5 1.7 24 10.2 WNW 22 39 12 21 - - 0.0
29/01:42pm 22.9 15.8 1.3 24 10.0 W 28 50 15 27 - - 0.0
29/01:30pm 23.2 17.4 2.1 25 10.0 W 22 43 12 23 - - 0.0
29/01:17pm 22.8 15.7 1.2 24 10.0 WNW 28 65 15 35 - - 0.0
29/01:00pm 23.1 17.7 2.6 26 9.8 NW 20 30 11 16 - - 0.0
29/12:30pm 20.1 16.5 6.8 42 6.7 N 15 22 8 12 - - 0.0
29/12:00pm 19.8 14.8 4.7 37 7.3 N 20 30 11 16 - - 0.0
29/11:30am 19.3 15.5 3.9 36 7.3 N 13 20 7 11 - - 0.0
29/11:00am 18.6 14.0 5.5 42 6.4 N 19 28 10 15 - - 0.0
29/10:30am 17.7 13.0 5.0 43 6.1 N 19 24 10 13 - - 0.0
29/10:00am 17.1 13.0 4.1 42 6.1 N 15 22 8 12 - - 0.0
29/09:30am 16.0 12.2 4.1 45 5.5 N 13 20 7 11 - - 0.0
29/09:00am 14.9 12.1 3.4 46 5.2 N 7 11 4 6 - - 0.0
29/08:30am 15.0 12.1 2.5 43 5.6 NNW 7 13 4 7 - - 0.0
29/08:00am 15.4 12.9 1.5 39 6.1 WNW 4 7 2 4 - - 0.0
29/07:30am 16.2 13.1 1.1 36 6.6 WNW 7 20 4 11 - - 0.0
29/07:00am 16.3 11.6 1.2 36 6.6 W 15 28 8 15 - - 0.0
29/06:30am 16.1 12.6 1.4 37 6.5 NW 9 17 5 9 - - 0.0
29/06:00am 15.6 11.9 2.1 40 6.0 NNW 11 15 6 8 - - 0.0
29/05:30am 15.7 12.0 2.5 41 5.9 NW 11 19 6 10 - - 0.0
29/05:00am 15.0 11.9 3.5 46 5.2 NNW 9 15 5 8 - - 0.0
29/04:30am 14.9 10.2 3.4 46 5.2 NNW 17 22 9 12 - - 0.0
29/04:00am 14.9 9.9 3.7 47 5.1 NNW 19 26 10 14 - - 0.0
29/03:30am 15.1 11.4 4.2 48 5.0 N 13 19 7 10 - - 0.0
29/03:00am 14.9 11.8 3.7 47 5.1 N 9 13 5 7 - - 0.0
29/02:30am 15.1 12.2 4.8 50 4.8 N 9 13 5 7 - - 0.0
29/02:00am 14.8 12.0 5.1 52 4.6 N 9 19 5 10 - - 0.0
29/01:30am 14.7 11.9 5.0 52 4.5 NNE 9 15 5 8 - - 0.0
29/01:00am 14.1 10.5 5.2 55 4.2 N 13 22 7 12 - - 0.0
29/12:30am 14.3 11.6 5.7 56 4.1 NNW 9 19 5 10 - - 0.0
29/12:00am 14.5 11.4 5.6 55 4.2 NNW 11 17 6 9 - - 0.0
 
Date/Time
EST
Temp
°C
App
Temp
°C
Dew
Point
Rel
Hum
%
Delta-T
°C
Wind Press
QNH
hPa
Press
MSL
hPa
Rain
since 9 am
mm
Dir
 
Spd
km/h
Gust
km/h
Spd
kts
Gust
kts
28/11:30pm 14.8 12.5 5.9 55 4.3 N 7 13 4 7 - - 0.0
28/11:00pm 14.6 12.2 5.4 54 4.3 N 7 11 4 6 - - 0.0
28/10:30pm 15.0 12.6 5.2 52 4.6 NNW 7 13 4 7 - - 0.0
28/10:00pm 15.3 12.5 5.0 50 4.9 NNW 9 15 5 8 - - 0.0
28/09:30pm 14.6 12.7 4.9 52 4.5 N 4 13 2 7 - - 0.0
28/09:00pm 14.7 12.5 5.2 53 4.5 N 6 7 3 4 - - 0.0
28/08:30pm 14.7 13.6 5.0 52 4.5 CALM 0 2 0 1 - - 0.0
28/08:00pm 14.9 12.0 4.9 51 4.7 NNW 9 13 5 7 - - 0.0
28/07:30pm 14.8 12.3 4.8 51 4.7 N 7 11 4 6 - - 0.0
28/07:00pm 15.5 13.0 4.8 49 5.0 NW 7 9 4 5 - - 0.0
28/06:30pm 15.8 12.9 4.8 48 5.2 NW 9 13 5 7 - - 0.0
28/06:00pm 15.7 13.3 5.3 50 4.9 NW 7 11 4 6 - - 0.0
28/05:30pm 15.2 14.2 5.7 53 4.5 CALM 0 0 0 0 - - 0.0
28/05:00pm 15.7 14.8 5.9 52 4.7 CALM 0 0 0 0 - - 0.0
28/04:30pm 16.7 15.6 5.3 47 5.5 CALM 0 4 0 2 - - 0.0
28/04:00pm 17.1 14.7 5.1 45 5.7 W 7 11 4 6 - - 0.0
28/03:30pm 17.4 13.4 4.7 43 6.0 W 15 20 8 11 - - 0.0
28/03:00pm 17.6 12.8 4.6 42 6.2 W 19 28 10 15 - - 0.0
28/02:30pm 17.7 12.2 3.9 40 6.5 W 22 33 12 18 - - 0.0
28/02:00pm 17.7 12.6 4.3 41 6.3 WSW 20 32 11 17 - - 0.0
28/01:30pm 17.5 13.1 4.5 42 6.2 W 17 26 9 14 - - 0.0
28/01:00pm 17.4 14.4 4.0 41 6.3 WSW 9 22 5 12 - - 0.0
28/12:30pm 17.9 13.1 4.5 41 6.4 W 19 33 10 18 - - 0.0
28/12:00pm 17.8 12.8 3.7 39 6.6 W 19 30 10 16 - - 0.0
28/11:30am 17.3 13.9 3.9 41 6.3 WSW 11 22 6 12 - - 0.0
28/11:00am 17.3 12.7 3.6 40 6.4 W 17 28 9 15 - - 0.0
28/10:30am 16.6 11.4 3.7 42 6.0 W 20 30 11 16 - - 0.0
28/10:00am 16.0 13.4 3.1 42 5.9 NNW 6 13 3 7 - - 0.0
28/09:30am 15.0 11.7 4.4 49 4.9 N 11 13 6 7 - - 0.0
28/09:00am 14.3 10.1 3.7 49 4.8 NW 15 24 8 13 - - 0.0
28/08:30am 13.7 9.7 2.9 48 4.8 NW 13 24 7 13 - - 0.0
28/08:00am 13.2 9.2 2.7 49 4.6 WNW 13 19 7 10 - - 0.0
28/07:30am 12.6 10.0 3.0 52 4.2 W 6 13 3 7 - - 0.0
28/07:00am 12.7 8.7 3.1 52 4.2 NW 13 20 7 11 - - 0.0
28/06:30am 12.6 9.0 3.0 52 4.2 WNW 11 20 6 11 - - 0.0
28/06:00am 11.8 9.5 2.8 54 3.9 NW 4 13 2 7 - - 0.0
28/05:30am 11.8 10.3 2.8 54 3.9 CALM 0 0 0 0 - - 0.0
28/05:00am 12.5 8.5 2.9 52 4.2 W 13 22 7 12 - - 0.0
28/04:30am 11.8 7.6 3.6 57 3.6 NW 15 20 8 11 - - 0.0
28/04:00am 12.8 9.5 2.4 49 4.5 W 9 15 5 8 - - 0.0
28/03:30am 12.0 9.8 3.3 55 3.8 W 4 7 2 4 - - 0.0
28/03:00am 12.2 10.1 3.9 57 3.7 WSW 4 9 2 5 - - 0.0
28/02:30am 12.9 9.0 3.3 52 4.3 W 13 24 7 13 - - 0.0
28/02:00am 12.1 9.1 3.9 57 3.7 WSW 9 15 5 8 - - 0.0
28/01:30am 12.7 9.7 3.9 55 4.0 WNW 9 20 5 11 - - 0.0
28/01:00am 12.8 8.3 4.3 56 3.9 NW 17 30 9 16 - - 0.0
28/12:30am 12.6 8.1 4.1 56 3.8 WNW 17 26 9 14 - - 0.0
28/12:00am 11.8 8.0 4.1 59 3.5 NW 13 20 7 11 - - 0.0
 
Date/Time
EST
Temp
°C
App
Temp
°C
Dew
Point
Rel
Hum
%
Delta-T
°C
Wind Press
QNH
hPa
Press
MSL
hPa
Rain
since 9 am
mm
Dir
 
Spd
km/h
Gust
km/h
Spd
kts
Gust
kts
27/11:30pm 12.9 9.1 4.1 55 4.0 W 13 19 7 10 - - 0.0
27/11:00pm 12.4 9.2 4.9 60 3.4 WNW 11 24 6 13 - - 0.0
27/10:30pm 11.9 8.2 4.6 61 3.3 WNW 13 17 7 9 - - 0.0
27/10:00pm 11.7 8.8 4.7 62 3.2 N 9 13 5 7 - - 0.0
27/09:30pm 12.7 9.8 4.4 57 3.8 NW 9 17 5 9 - - 0.0
27/09:00pm 13.1 9.8 4.5 56 3.9 WNW 11 19 6 10 - - 0.0
27/08:30pm 13.2 9.9 4.6 56 3.9 NW 11 19 6 10 - - 0.0
27/08:00pm 13.4 10.5 4.6 55 4.0 WNW 9 19 5 10 - - 0.0
27/07:30pm 13.8 10.5 4.7 54 4.2 WNW 11 20 6 11 - - 0.0
27/07:00pm 14.3 11.5 5.1 54 4.3 WNW 9 13 5 7 - - 0.0

Other Formats:

Comma delimited format used in spreadsheet applications
http://www.bom.gov.au/fwo/IDN60801/IDN60801.95749.axf

JavaScript Object Notation format (JSON) in row-major order
http://www.bom.gov.au/fwo/IDN60801/IDN60801.95749.json